sensor_id;sensor_type;location;lat;lon;timestamp;P1;durP1;ratioP1;P2;durP2;ratioP2
20896;SDS011;10608;42.600;23.398;2024-01-10T00:01:11;12.60;;;11.80;;
20896;SDS011;10608;42.600;23.398;2024-01-10T00:03:36;12.83;;;12.10;;
20896;SDS011;10608;42.600;23.398;2024-01-10T00:06:02;12.07;;;11.37;;
20896;SDS011;10608;42.600;23.398;2024-01-10T00:08:27;12.90;;;12.00;;
20896;SDS011;10608;42.600;23.398;2024-01-10T00:10:53;12.47;;;11.57;;
20896;SDS011;10608;42.600;23.398;2024-01-10T00:13:21;12.53;;;11.73;;
20896;SDS011;10608;42.600;23.398;2024-01-10T00:15:47;13.03;;;12.23;;
20896;SDS011;10608;42.600;23.398;2024-01-10T00:18:13;13.17;;;12.23;;
20896;SDS011;10608;42.600;23.398;2024-01-10T00:20:38;14.60;;;13.47;;
20896;SDS011;10608;42.600;23.398;2024-01-10T00:23:04;14.23;;;13.17;;
20896;SDS011;10608;42.600;23.398;2024-01-10T00:25:31;14.07;;;13.07;;
20896;SDS011;10608;42.600;23.398;2024-01-10T00:27:57;14.93;;;13.60;;
20896;SDS011;10608;42.600;23.398;2024-01-10T00:30:22;13.40;;;12.67;;
20896;SDS011;10608;42.600;23.398;2024-01-10T00:32:47;14.20;;;13.00;;
20896;SDS011;10608;42.600;23.398;2024-01-10T00:35:13;14.10;;;12.93;;
20896;SDS011;10608;42.600;23.398;2024-01-10T00:37:38;14.23;;;13.27;;
20896;SDS011;10608;42.600;23.398;2024-01-10T00:40:04;13.70;;;12.67;;
20896;SDS011;10608;42.600;23.398;2024-01-10T00:42:30;13.93;;;13.13;;
20896;SDS011;10608;42.600;23.398;2024-01-10T00:44:55;14.10;;;13.10;;
20896;SDS011;10608;42.600;23.398;2024-01-10T00:47:21;14.33;;;13.33;;
20896;SDS011;10608;42.600;23.398;2024-01-10T00:49:46;13.73;;;12.67;;
20896;SDS011;10608;42.600;23.398;2024-01-10T00:52:11;14.20;;;12.97;;
20896;SDS011;10608;42.600;23.398;2024-01-10T00:54:37;14.33;;;13.27;;
20896;SDS011;10608;42.600;23.398;2024-01-10T00:57:02;16.97;;;15.37;;
20896;SDS011;10608;42.600;23.398;2024-01-10T00:59:28;14.57;;;13.37;;
20896;SDS011;10608;42.600;23.398;2024-01-10T01:01:53;14.67;;;13.57;;
20896;SDS011;10608;42.600;23.398;2024-01-10T01:04:19;14.20;;;13.13;;
20896;SDS011;10608;42.600;23.398;2024-01-10T01:06:44;14.13;;;13.10;;
20896;SDS011;10608;42.600;23.398;2024-01-10T01:09:10;14.73;;;13.57;;
20896;SDS011;10608;42.600;23.398;2024-01-10T01:11:35;13.33;;;12.43;;
20896;SDS011;10608;42.600;23.398;2024-01-10T01:14:00;14.57;;;13.57;;
20896;SDS011;10608;42.600;23.398;2024-01-10T01:16:26;14.50;;;13.50;;
20896;SDS011;10608;42.600;23.398;2024-01-10T01:18:51;14.00;;;12.90;;
20896;SDS011;10608;42.600;23.398;2024-01-10T01:21:17;15.30;;;14.10;;
20896;SDS011;10608;42.600;23.398;2024-01-10T01:23:42;14.40;;;13.27;;
20896;SDS011;10608;42.600;23.398;2024-01-10T01:26:07;14.33;;;13.33;;
20896;SDS011;10608;42.600;23.398;2024-01-10T01:28:33;14.63;;;13.53;;
20896;SDS011;10608;42.600;23.398;2024-01-10T01:30:58;15.33;;;14.20;;
20896;SDS011;10608;42.600;23.398;2024-01-10T01:33:23;14.80;;;13.77;;
20896;SDS011;10608;42.600;23.398;2024-01-10T01:35:49;14.60;;;13.40;;
20896;SDS011;10608;42.600;23.398;2024-01-10T01:38:14;14.00;;;13.07;;
20896;SDS011;10608;42.600;23.398;2024-01-10T01:40:40;13.17;;;12.23;;
20896;SDS011;10608;42.600;23.398;2024-01-10T01:43:21;14.30;;;13.20;;
20896;SDS011;10608;42.600;23.398;2024-01-10T01:45:50;13.50;;;12.50;;
20896;SDS011;10608;42.600;23.398;2024-01-10T01:48:20;14.33;;;13.17;;
20896;SDS011;10608;42.600;23.398;2024-01-10T01:50:47;14.50;;;13.30;;
20896;SDS011;10608;42.600;23.398;2024-01-10T01:53:15;13.67;;;12.87;;
20896;SDS011;10608;42.600;23.398;2024-01-10T01:55:42;13.50;;;12.67;;
20896;SDS011;10608;42.600;23.398;2024-01-10T01:58:09;14.40;;;13.27;;
20896;SDS011;10608;42.600;23.398;2024-01-10T02:00:35;14.53;;;13.57;;
20896;SDS011;10608;42.600;23.398;2024-01-10T02:03:02;14.17;;;13.20;;
20896;SDS011;10608;42.600;23.398;2024-01-10T02:05:27;13.97;;;12.97;;
20896;SDS011;10608;42.600;23.398;2024-01-10T02:07:53;14.00;;;13.07;;
20896;SDS011;10608;42.600;23.398;2024-01-10T02:10:20;14.93;;;13.67;;
20896;SDS011;10608;42.600;23.398;2024-01-10T02:12:46;14.97;;;13.87;;
20896;SDS011;10608;42.600;23.398;2024-01-10T02:15:12;14.93;;;13.70;;
20896;SDS011;10608;42.600;23.398;2024-01-10T02:17:39;14.50;;;13.40;;
20896;SDS011;10608;42.600;23.398;2024-01-10T02:20:08;14.93;;;13.73;;
20896;SDS011;10608;42.600;23.398;2024-01-10T02:22:36;14.23;;;13.13;;
20896;SDS011;10608;42.600;23.398;2024-01-10T02:25:03;13.07;;;11.93;;
20896;SDS011;10608;42.600;23.398;2024-01-10T02:27:30;13.90;;;12.83;;
20896;SDS011;10608;42.600;23.398;2024-01-10T02:29:56;13.60;;;12.70;;
20896;SDS011;10608;42.600;23.398;2024-01-10T02:32:22;13.60;;;12.77;;
20896;SDS011;10608;42.600;23.398;2024-01-10T02:34:48;14.20;;;13.10;;
20896;SDS011;10608;42.600;23.398;2024-01-10T02:37:13;14.60;;;13.47;;
20896;SDS011;10608;42.600;23.398;2024-01-10T02:39:39;14.30;;;13.13;;
20896;SDS011;10608;42.600;23.398;2024-01-10T02:42:05;14.53;;;13.37;;
20896;SDS011;10608;42.600;23.398;2024-01-10T02:44:30;14.77;;;13.70;;
20896;SDS011;10608;42.600;23.398;2024-01-10T02:46:55;13.80;;;12.77;;
20896;SDS011;10608;42.600;23.398;2024-01-10T02:49:21;14.43;;;13.40;;
20896;SDS011;10608;42.600;23.398;2024-01-10T02:51:46;14.17;;;13.03;;
20896;SDS011;10608;42.600;23.398;2024-01-10T02:54:12;14.83;;;13.73;;
20896;SDS011;10608;42.600;23.398;2024-01-10T02:56:37;14.83;;;13.40;;
20896;SDS011;10608;42.600;23.398;2024-01-10T02:59:02;14.60;;;13.43;;
20896;SDS011;10608;42.600;23.398;2024-01-10T03:01:28;15.47;;;14.20;;
20896;SDS011;10608;42.600;23.398;2024-01-10T03:03:53;14.53;;;13.53;;
20896;SDS011;10608;42.600;23.398;2024-01-10T03:06:19;16.27;;;14.77;;
20896;SDS011;10608;42.600;23.398;2024-01-10T03:08:44;16.37;;;15.07;;
20896;SDS011;10608;42.600;23.398;2024-01-10T03:11:09;16.30;;;14.77;;
20896;SDS011;10608;42.600;23.398;2024-01-10T03:13:35;15.20;;;13.90;;
20896;SDS011;10608;42.600;23.398;2024-01-10T03:16:00;15.57;;;14.47;;
20896;SDS011;10608;42.600;23.398;2024-01-10T03:18:26;15.83;;;14.73;;
20896;SDS011;10608;42.600;23.398;2024-01-10T03:20:51;16.07;;;14.90;;
20896;SDS011;10608;42.600;23.398;2024-01-10T03:23:17;16.43;;;15.13;;
20896;SDS011;10608;42.600;23.398;2024-01-10T03:25:42;16.97;;;15.67;;
20896;SDS011;10608;42.600;23.398;2024-01-10T03:28:07;16.60;;;15.40;;
20896;SDS011;10608;42.600;23.398;2024-01-10T03:30:33;16.33;;;15.07;;
20896;SDS011;10608;42.600;23.398;2024-01-10T03:32:58;15.53;;;14.20;;
20896;SDS011;10608;42.600;23.398;2024-01-10T03:35:23;15.03;;;13.93;;
20896;SDS011;10608;42.600;23.398;2024-01-10T03:37:49;15.13;;;14.03;;
20896;SDS011;10608;42.600;23.398;2024-01-10T03:40:14;15.97;;;14.77;;
20896;SDS011;10608;42.600;23.398;2024-01-10T03:42:39;17.67;;;15.40;;
20896;SDS011;10608;42.600;23.398;2024-01-10T03:45:05;15.47;;;14.27;;
20896;SDS011;10608;42.600;23.398;2024-01-10T03:47:31;15.20;;;14.03;;
20896;SDS011;10608;42.600;23.398;2024-01-10T03:49:56;15.27;;;13.97;;
20896;SDS011;10608;42.600;23.398;2024-01-10T03:52:22;14.97;;;13.87;;
20896;SDS011;10608;42.600;23.398;2024-01-10T03:54:47;16.40;;;15.20;;
20896;SDS011;10608;42.600;23.398;2024-01-10T03:57:13;14.63;;;13.53;;
20896;SDS011;10608;42.600;23.398;2024-01-10T03:59:38;15.83;;;14.63;;
20896;SDS011;10608;42.600;23.398;2024-01-10T04:02:04;16.47;;;14.93;;
20896;SDS011;10608;42.600;23.398;2024-01-10T04:04:30;16.87;;;15.63;;
20896;SDS011;10608;42.600;23.398;2024-01-10T04:06:55;16.53;;;15.43;;
20896;SDS011;10608;42.600;23.398;2024-01-10T04:09:21;16.67;;;15.57;;
20896;SDS011;10608;42.600;23.398;2024-01-10T04:11:46;16.80;;;15.60;;
20896;SDS011;10608;42.600;23.398;2024-01-10T04:14:11;17.60;;;16.23;;
20896;SDS011;10608;42.600;23.398;2024-01-10T04:16:37;16.03;;;14.93;;
20896;SDS011;10608;42.600;23.398;2024-01-10T04:19:03;16.80;;;15.50;;
20896;SDS011;10608;42.600;23.398;2024-01-10T04:21:28;16.83;;;15.63;;
20896;SDS011;10608;42.600;23.398;2024-01-10T04:23:53;16.73;;;15.43;;
20896;SDS011;10608;42.600;23.398;2024-01-10T04:26:19;17.57;;;16.03;;
20896;SDS011;10608;42.600;23.398;2024-01-10T04:28:44;16.40;;;15.10;;
20896;SDS011;10608;42.600;23.398;2024-01-10T04:31:09;16.40;;;15.17;;
20896;SDS011;10608;42.600;23.398;2024-01-10T04:33:35;15.97;;;14.77;;
20896;SDS011;10608;42.600;23.398;2024-01-10T04:36:01;16.33;;;14.97;;
20896;SDS011;10608;42.600;23.398;2024-01-10T04:38:26;14.73;;;13.63;;
20896;SDS011;10608;42.600;23.398;2024-01-10T04:40:52;16.20;;;14.80;;
20896;SDS011;10608;42.600;23.398;2024-01-10T04:43:18;16.10;;;14.97;;
20896;SDS011;10608;42.600;23.398;2024-01-10T04:45:43;17.07;;;15.70;;
20896;SDS011;10608;42.600;23.398;2024-01-10T04:48:09;16.00;;;14.80;;
20896;SDS011;10608;42.600;23.398;2024-01-10T04:50:34;16.23;;;15.03;;
20896;SDS011;10608;42.600;23.398;2024-01-10T04:53:00;16.70;;;15.40;;
20896;SDS011;10608;42.600;23.398;2024-01-10T04:55:25;17.13;;;15.77;;
20896;SDS011;10608;42.600;23.398;2024-01-10T04:57:51;16.53;;;15.33;;
20896;SDS011;10608;42.600;23.398;2024-01-10T05:00:16;16.93;;;15.47;;
20896;SDS011;10608;42.600;23.398;2024-01-10T05:02:42;16.20;;;15.00;;
20896;SDS011;10608;42.600;23.398;2024-01-10T05:05:07;17.47;;;16.17;;
20896;SDS011;10608;42.600;23.398;2024-01-10T05:07:33;16.50;;;15.20;;
20896;SDS011;10608;42.600;23.398;2024-01-10T05:09:58;16.53;;;15.30;;
20896;SDS011;10608;42.600;23.398;2024-01-10T05:12:24;16.17;;;14.90;;
20896;SDS011;10608;42.600;23.398;2024-01-10T05:14:50;15.90;;;14.70;;
20896;SDS011;10608;42.600;23.398;2024-01-10T05:17:15;16.50;;;14.97;;
20896;SDS011;10608;42.600;23.398;2024-01-10T05:19:40;16.43;;;15.10;;
20896;SDS011;10608;42.600;23.398;2024-01-10T05:22:06;15.90;;;14.80;;
20896;SDS011;10608;42.600;23.398;2024-01-10T05:24:32;15.30;;;14.17;;
20896;SDS011;10608;42.600;23.398;2024-01-10T05:26:57;16.83;;;15.47;;
20896;SDS011;10608;42.600;23.398;2024-01-10T05:29:22;14.77;;;13.77;;
20896;SDS011;10608;42.600;23.398;2024-01-10T05:31:49;16.60;;;15.10;;
20896;SDS011;10608;42.600;23.398;2024-01-10T05:34:15;16.00;;;14.80;;
20896;SDS011;10608;42.600;23.398;2024-01-10T05:36:41;16.57;;;15.23;;
20896;SDS011;10608;42.600;23.398;2024-01-10T05:39:07;16.20;;;14.83;;
20896;SDS011;10608;42.600;23.398;2024-01-10T05:41:32;16.03;;;14.80;;
20896;SDS011;10608;42.600;23.398;2024-01-10T05:43:58;16.10;;;14.70;;
20896;SDS011;10608;42.600;23.398;2024-01-10T05:46:23;15.87;;;14.67;;
20896;SDS011;10608;42.600;23.398;2024-01-10T05:48:48;16.63;;;15.43;;
20896;SDS011;10608;42.600;23.398;2024-01-10T05:51:14;16.70;;;15.40;;
20896;SDS011;10608;42.600;23.398;2024-01-10T05:53:39;16.07;;;14.77;;
20896;SDS011;10608;42.600;23.398;2024-01-10T05:56:08;16.53;;;15.23;;
20896;SDS011;10608;42.600;23.398;2024-01-10T05:58:33;16.13;;;14.93;;
20896;SDS011;10608;42.600;23.398;2024-01-10T06:00:58;16.93;;;15.53;;
20896;SDS011;10608;42.600;23.398;2024-01-10T06:03:24;17.00;;;15.63;;
20896;SDS011;10608;42.600;23.398;2024-01-10T06:05:49;16.57;;;15.27;;
20896;SDS011;10608;42.600;23.398;2024-01-10T06:08:15;16.47;;;14.93;;
20896;SDS011;10608;42.600;23.398;2024-01-10T06:10:40;16.23;;;14.97;;
20896;SDS011;10608;42.600;23.398;2024-01-10T06:13:06;16.10;;;15.07;;
20896;SDS011;10608;42.600;23.398;2024-01-10T06:15:31;15.93;;;14.70;;
20896;SDS011;10608;42.600;23.398;2024-01-10T06:17:57;16.73;;;15.40;;
20896;SDS011;10608;42.600;23.398;2024-01-10T06:20:23;17.40;;;15.87;;
20896;SDS011;10608;42.600;23.398;2024-01-10T06:22:48;19.97;;;18.67;;
20896;SDS011;10608;42.600;23.398;2024-01-10T06:25:14;15.73;;;14.63;;
20896;SDS011;10608;42.600;23.398;2024-01-10T06:27:40;14.47;;;13.47;;
20896;SDS011;10608;42.600;23.398;2024-01-10T06:30:07;15.70;;;14.43;;
20896;SDS011;10608;42.600;23.398;2024-01-10T06:32:32;15.40;;;14.27;;
20896;SDS011;10608;42.600;23.398;2024-01-10T06:34:58;14.20;;;13.23;;
20896;SDS011;10608;42.600;23.398;2024-01-10T06:37:25;15.43;;;14.20;;
20896;SDS011;10608;42.600;23.398;2024-01-10T06:39:50;14.53;;;13.57;;
20896;SDS011;10608;42.600;23.398;2024-01-10T06:42:16;14.37;;;13.37;;
20896;SDS011;10608;42.600;23.398;2024-01-10T06:44:41;15.60;;;14.67;;
20896;SDS011;10608;42.600;23.398;2024-01-10T06:47:07;18.93;;;17.77;;
20896;SDS011;10608;42.600;23.398;2024-01-10T06:49:32;22.00;;;20.57;;
20896;SDS011;10608;42.600;23.398;2024-01-10T06:51:58;23.53;;;22.13;;
20896;SDS011;10608;42.600;23.398;2024-01-10T06:54:25;17.73;;;16.67;;
20896;SDS011;10608;42.600;23.398;2024-01-10T06:56:50;14.47;;;13.33;;
20896;SDS011;10608;42.600;23.398;2024-01-10T06:59:16;17.07;;;15.70;;
20896;SDS011;10608;42.600;23.398;2024-01-10T07:01:41;17.07;;;15.87;;
20896;SDS011;10608;42.600;23.398;2024-01-10T07:04:07;16.27;;;14.67;;
20896;SDS011;10608;42.600;23.398;2024-01-10T07:06:32;16.33;;;14.93;;
20896;SDS011;10608;42.600;23.398;2024-01-10T07:08:57;16.00;;;14.43;;
20896;SDS011;10608;42.600;23.398;2024-01-10T07:11:23;15.23;;;13.80;;
20896;SDS011;10608;42.600;23.398;2024-01-10T07:13:49;14.77;;;13.70;;
20896;SDS011;10608;42.600;23.398;2024-01-10T07:16:14;13.70;;;12.70;;
20896;SDS011;10608;42.600;23.398;2024-01-10T07:18:41;16.07;;;14.17;;
20896;SDS011;10608;42.600;23.398;2024-01-10T07:21:06;15.20;;;14.17;;
20896;SDS011;10608;42.600;23.398;2024-01-10T07:23:34;14.77;;;13.43;;
20896;SDS011;10608;42.600;23.398;2024-01-10T07:26:00;15.10;;;13.90;;
20896;SDS011;10608;42.600;23.398;2024-01-10T07:28:26;15.37;;;13.97;;
20896;SDS011;10608;42.600;23.398;2024-01-10T07:30:51;14.23;;;13.13;;
20896;SDS011;10608;42.600;23.398;2024-01-10T07:33:17;13.90;;;12.93;;
20896;SDS011;10608;42.600;23.398;2024-01-10T07:35:43;11.67;;;10.87;;
20896;SDS011;10608;42.600;23.398;2024-01-10T07:38:08;14.57;;;13.20;;
20896;SDS011;10608;42.600;23.398;2024-01-10T07:40:34;14.90;;;13.67;;
20896;SDS011;10608;42.600;23.398;2024-01-10T07:43:00;13.90;;;12.60;;
20896;SDS011;10608;42.600;23.398;2024-01-10T07:45:26;14.50;;;13.23;;
20896;SDS011;10608;42.600;23.398;2024-01-10T07:47:51;13.93;;;12.63;;
20896;SDS011;10608;42.600;23.398;2024-01-10T07:50:17;16.30;;;14.33;;
20896;SDS011;10608;42.600;23.398;2024-01-10T07:52:44;17.80;;;15.97;;
20896;SDS011;10608;42.600;23.398;2024-01-10T07:55:11;15.87;;;14.27;;
20896;SDS011;10608;42.600;23.398;2024-01-10T07:57:36;23.53;;;17.07;;
20896;SDS011;10608;42.600;23.398;2024-01-10T08:00:03;19.63;;;14.90;;
20896;SDS011;10608;42.600;23.398;2024-01-10T08:02:35;18.17;;;16.37;;
20896;SDS011;10608;42.600;23.398;2024-01-10T08:05:01;15.93;;;14.73;;
20896;SDS011;10608;42.600;23.398;2024-01-10T08:07:30;17.33;;;15.67;;
20896;SDS011;10608;42.600;23.398;2024-01-10T08:09:58;16.00;;;14.70;;
20896;SDS011;10608;42.600;23.398;2024-01-10T08:12:24;16.07;;;14.47;;
20896;SDS011;10608;42.600;23.398;2024-01-10T08:14:49;16.53;;;14.83;;
20896;SDS011;10608;42.600;23.398;2024-01-10T08:17:15;15.60;;;14.20;;
20896;SDS011;10608;42.600;23.398;2024-01-10T08:19:40;18.57;;;14.83;;
20896;SDS011;10608;42.600;23.398;2024-01-10T08:22:06;15.87;;;14.47;;
20896;SDS011;10608;42.600;23.398;2024-01-10T08:24:32;17.10;;;15.50;;
20896;SDS011;10608;42.600;23.398;2024-01-10T08:26:58;15.53;;;14.00;;
20896;SDS011;10608;42.600;23.398;2024-01-10T08:29:23;15.57;;;14.10;;
20896;SDS011;10608;42.600;23.398;2024-01-10T08:31:55;15.80;;;14.00;;
20896;SDS011;10608;42.600;23.398;2024-01-10T08:34:21;15.70;;;13.97;;
20896;SDS011;10608;42.600;23.398;2024-01-10T08:36:47;16.43;;;14.80;;
20896;SDS011;10608;42.600;23.398;2024-01-10T08:39:15;14.83;;;13.47;;
20896;SDS011;10608;42.600;23.398;2024-01-10T08:41:41;15.13;;;13.70;;
20896;SDS011;10608;42.600;23.398;2024-01-10T08:44:09;18.30;;;16.33;;
20896;SDS011;10608;42.600;23.398;2024-01-10T08:46:37;17.57;;;16.00;;
20896;SDS011;10608;42.600;23.398;2024-01-10T08:49:02;17.57;;;15.73;;
20896;SDS011;10608;42.600;23.398;2024-01-10T08:51:28;18.70;;;16.77;;
20896;SDS011;10608;42.600;23.398;2024-01-10T08:53:53;17.87;;;16.13;;
20896;SDS011;10608;42.600;23.398;2024-01-10T08:56:19;15.20;;;13.77;;
20896;SDS011;10608;42.600;23.398;2024-01-10T08:58:45;16.03;;;14.30;;
20896;SDS011;10608;42.600;23.398;2024-01-10T09:01:10;15.37;;;14.10;;
20896;SDS011;10608;42.600;23.398;2024-01-10T09:03:36;16.23;;;14.73;;
20896;SDS011;10608;42.600;23.398;2024-01-10T09:06:02;18.40;;;16.70;;
20896;SDS011;10608;42.600;23.398;2024-01-10T09:08:29;17.83;;;16.53;;
20896;SDS011;10608;42.600;23.398;2024-01-10T09:10:54;15.83;;;14.30;;
20896;SDS011;10608;42.600;23.398;2024-01-10T09:13:20;15.13;;;13.83;;
20896;SDS011;10608;42.600;23.398;2024-01-10T09:15:45;15.87;;;14.47;;
20896;SDS011;10608;42.600;23.398;2024-01-10T09:18:11;16.17;;;14.77;;
20896;SDS011;10608;42.600;23.398;2024-01-10T09:20:36;14.50;;;13.30;;
20896;SDS011;10608;42.600;23.398;2024-01-10T09:23:03;15.07;;;13.63;;
20896;SDS011;10608;42.600;23.398;2024-01-10T09:25:28;15.23;;;13.83;;
20896;SDS011;10608;42.600;23.398;2024-01-10T09:27:54;13.67;;;12.37;;
20896;SDS011;10608;42.600;23.398;2024-01-10T09:30:20;14.50;;;13.40;;
20896;SDS011;10608;42.600;23.398;2024-01-10T09:32:45;15.17;;;13.67;;
20896;SDS011;10608;42.600;23.398;2024-01-10T09:35:11;17.87;;;14.77;;
20896;SDS011;10608;42.600;23.398;2024-01-10T09:37:37;20.07;;;15.30;;
20896;SDS011;10608;42.600;23.398;2024-01-10T09:40:03;21.47;;;17.53;;
20896;SDS011;10608;42.600;23.398;2024-01-10T09:42:31;44.47;;;25.60;;
20896;SDS011;10608;42.600;23.398;2024-01-10T09:44:58;49.27;;;26.87;;
20896;SDS011;10608;42.600;23.398;2024-01-10T09:47:24;16.37;;;14.70;;
20896;SDS011;10608;42.600;23.398;2024-01-10T09:49:51;20.20;;;15.87;;
20896;SDS011;10608;42.600;23.398;2024-01-10T09:52:20;16.73;;;14.60;;
20896;SDS011;10608;42.600;23.398;2024-01-10T09:54:51;20.97;;;16.17;;
20896;SDS011;10608;42.600;23.398;2024-01-10T09:57:21;16.90;;;15.10;;
20896;SDS011;10608;42.600;23.398;2024-01-10T09:59:48;17.60;;;15.73;;
20896;SDS011;10608;42.600;23.398;2024-01-10T10:02:16;17.27;;;15.47;;
20896;SDS011;10608;42.600;23.398;2024-01-10T10:04:44;23.93;;;16.83;;
20896;SDS011;10608;42.600;23.398;2024-01-10T10:07:20;16.83;;;15.20;;
20896;SDS011;10608;42.600;23.398;2024-01-10T10:09:45;19.37;;;16.87;;
20896;SDS011;10608;42.600;23.398;2024-01-10T10:12:10;17.57;;;15.60;;
20896;SDS011;10608;42.600;23.398;2024-01-10T10:14:36;16.50;;;15.10;;
20896;SDS011;10608;42.600;23.398;2024-01-10T10:17:14;18.23;;;16.33;;
20896;SDS011;10608;42.600;23.398;2024-01-10T10:19:40;24.30;;;15.00;;
20896;SDS011;10608;42.600;23.398;2024-01-10T10:22:09;20.80;;;15.13;;
20896;SDS011;10608;42.600;23.398;2024-01-10T10:24:34;18.30;;;16.47;;
20896;SDS011;10608;42.600;23.398;2024-01-10T10:27:00;17.30;;;15.47;;
20896;SDS011;10608;42.600;23.398;2024-01-10T10:29:25;17.13;;;15.43;;
20896;SDS011;10608;42.600;23.398;2024-01-10T10:31:51;18.17;;;15.93;;
20896;SDS011;10608;42.600;23.398;2024-01-10T10:34:20;18.67;;;16.80;;
20896;SDS011;10608;42.600;23.398;2024-01-10T10:36:48;20.37;;;16.20;;
20896;SDS011;10608;42.600;23.398;2024-01-10T10:39:15;22.57;;;17.67;;
20896;SDS011;10608;42.600;23.398;2024-01-10T10:41:41;17.57;;;15.33;;
20896;SDS011;10608;42.600;23.398;2024-01-10T10:44:08;25.67;;;16.43;;
20896;SDS011;10608;42.600;23.398;2024-01-10T10:46:35;16.20;;;14.60;;
20896;SDS011;10608;42.600;23.398;2024-01-10T10:49:04;15.97;;;14.63;;
20896;SDS011;10608;42.600;23.398;2024-01-10T10:51:36;17.10;;;14.97;;
20896;SDS011;10608;42.600;23.398;2024-01-10T10:54:02;20.97;;;15.17;;
20896;SDS011;10608;42.600;23.398;2024-01-10T10:56:29;17.17;;;14.87;;
20896;SDS011;10608;42.600;23.398;2024-01-10T10:58:56;16.97;;;15.17;;
20896;SDS011;10608;42.600;23.398;2024-01-10T11:01:24;17.67;;;16.07;;
20896;SDS011;10608;42.600;23.398;2024-01-10T11:03:52;21.10;;;15.70;;
20896;SDS011;10608;42.600;23.398;2024-01-10T11:06:17;16.70;;;14.67;;
20896;SDS011;10608;42.600;23.398;2024-01-10T11:08:44;16.60;;;14.90;;
20896;SDS011;10608;42.600;23.398;2024-01-10T11:22:25;17.57;;;15.67;;
20896;SDS011;10608;42.600;23.398;2024-01-10T11:25:10;18.00;;;16.10;;
20896;SDS011;10608;42.600;23.398;2024-01-10T11:27:36;18.03;;;16.10;;
20896;SDS011;10608;42.600;23.398;2024-01-10T11:30:02;17.73;;;14.83;;
20896;SDS011;10608;42.600;23.398;2024-01-10T11:32:30;15.67;;;14.07;;
20896;SDS011;10608;42.600;23.398;2024-01-10T11:34:57;17.37;;;15.47;;
20896;SDS011;10608;42.600;23.398;2024-01-10T11:37:29;16.17;;;14.60;;
20896;SDS011;10608;42.600;23.398;2024-01-10T11:40:10;17.50;;;15.73;;
20896;SDS011;10608;42.600;23.398;2024-01-10T11:42:43;16.43;;;14.93;;
20896;SDS011;10608;42.600;23.398;2024-01-10T11:45:16;14.60;;;13.43;;
20896;SDS011;10608;42.600;23.398;2024-01-10T11:47:59;17.93;;;16.03;;
20896;SDS011;10608;42.600;23.398;2024-01-10T11:50:24;17.70;;;15.47;;
20896;SDS011;10608;42.600;23.398;2024-01-10T11:52:54;17.63;;;15.97;;
20896;SDS011;10608;42.600;23.398;2024-01-10T11:58:33;18.10;;;16.13;;
20896;SDS011;10608;42.600;23.398;2024-01-10T12:01:17;18.30;;;16.33;;
20896;SDS011;10608;42.600;23.398;2024-01-10T12:03:43;19.37;;;17.50;;
20896;SDS011;10608;42.600;23.398;2024-01-10T12:06:09;19.13;;;17.33;;
20896;SDS011;10608;42.600;23.398;2024-01-10T12:08:35;21.80;;;18.53;;
20896;SDS011;10608;42.600;23.398;2024-01-10T12:11:00;18.70;;;16.53;;
20896;SDS011;10608;42.600;23.398;2024-01-10T12:13:26;23.90;;;17.23;;
20896;SDS011;10608;42.600;23.398;2024-01-10T12:15:52;21.10;;;16.40;;
20896;SDS011;10608;42.600;23.398;2024-01-10T12:18:17;21.13;;;17.40;;
20896;SDS011;10608;42.600;23.398;2024-01-10T12:20:42;19.10;;;17.30;;
20896;SDS011;10608;42.600;23.398;2024-01-10T12:23:10;17.93;;;16.23;;
20896;SDS011;10608;42.600;23.398;2024-01-10T12:25:36;17.47;;;15.80;;
20896;SDS011;10608;42.600;23.398;2024-01-10T12:28:02;20.37;;;18.47;;
20896;SDS011;10608;42.600;23.398;2024-01-10T12:30:28;19.47;;;16.93;;
20896;SDS011;10608;42.600;23.398;2024-01-10T12:32:53;21.00;;;18.80;;
20896;SDS011;10608;42.600;23.398;2024-01-10T12:35:19;24.63;;;17.57;;
20896;SDS011;10608;42.600;23.398;2024-01-10T12:37:55;21.27;;;17.03;;
20896;SDS011;10608;42.600;23.398;2024-01-10T12:40:21;18.73;;;16.83;;
20896;SDS011;10608;42.600;23.398;2024-01-10T12:42:46;16.93;;;15.30;;
20896;SDS011;10608;42.600;23.398;2024-01-10T12:45:24;18.03;;;16.37;;
20896;SDS011;10608;42.600;23.398;2024-01-10T12:47:50;17.17;;;15.77;;
20896;SDS011;10608;42.600;23.398;2024-01-10T12:50:18;23.97;;;16.97;;
20896;SDS011;10608;42.600;23.398;2024-01-10T12:52:44;19.87;;;15.43;;
20896;SDS011;10608;42.600;23.398;2024-01-10T12:55:10;20.00;;;17.93;;
20896;SDS011;10608;42.600;23.398;2024-01-10T12:57:36;21.90;;;17.30;;
20896;SDS011;10608;42.600;23.398;2024-01-10T13:00:01;20.77;;;17.23;;
20896;SDS011;10608;42.600;23.398;2024-01-10T13:02:33;20.47;;;18.30;;
20896;SDS011;10608;42.600;23.398;2024-01-10T13:05:02;18.63;;;16.77;;
20896;SDS011;10608;42.600;23.398;2024-01-10T13:07:37;18.80;;;16.93;;
20896;SDS011;10608;42.600;23.398;2024-01-10T13:10:03;20.83;;;16.50;;
20896;SDS011;10608;42.600;23.398;2024-01-10T13:12:28;18.87;;;16.87;;
20896;SDS011;10608;42.600;23.398;2024-01-10T13:14:54;22.87;;;17.30;;
20896;SDS011;10608;42.600;23.398;2024-01-10T13:17:20;23.47;;;19.90;;
20896;SDS011;10608;42.600;23.398;2024-01-10T13:19:47;20.83;;;18.63;;
20896;SDS011;10608;42.600;23.398;2024-01-10T13:22:14;19.07;;;17.23;;
20896;SDS011;10608;42.600;23.398;2024-01-10T13:24:44;19.57;;;16.87;;
20896;SDS011;10608;42.600;23.398;2024-01-10T13:27:10;23.17;;;18.43;;
20896;SDS011;10608;42.600;23.398;2024-01-10T13:29:36;20.37;;;18.27;;
20896;SDS011;10608;42.600;23.398;2024-01-10T13:32:05;20.13;;;18.03;;
20896;SDS011;10608;42.600;23.398;2024-01-10T13:34:31;20.87;;;18.47;;
20896;SDS011;10608;42.600;23.398;2024-01-10T13:36:57;22.87;;;19.27;;
20896;SDS011;10608;42.600;23.398;2024-01-10T13:39:23;19.33;;;17.33;;
20896;SDS011;10608;42.600;23.398;2024-01-10T13:41:49;19.90;;;17.93;;
20896;SDS011;10608;42.600;23.398;2024-01-10T13:44:15;23.13;;;18.10;;
20896;SDS011;10608;42.600;23.398;2024-01-10T13:46:41;20.87;;;18.83;;
20896;SDS011;10608;42.600;23.398;2024-01-10T13:49:06;22.87;;;18.97;;
20896;SDS011;10608;42.600;23.398;2024-01-10T13:51:32;23.77;;;19.93;;
20896;SDS011;10608;42.600;23.398;2024-01-10T13:53:57;21.63;;;19.27;;
20896;SDS011;10608;42.600;23.398;2024-01-10T13:56:22;21.07;;;19.13;;
20896;SDS011;10608;42.600;23.398;2024-01-10T13:58:49;21.03;;;19.13;;
20896;SDS011;10608;42.600;23.398;2024-01-10T14:01:14;21.47;;;18.60;;
20896;SDS011;10608;42.600;23.398;2024-01-10T14:03:39;20.87;;;18.67;;
20896;SDS011;10608;42.600;23.398;2024-01-10T14:06:05;18.53;;;16.83;;
20896;SDS011;10608;42.600;23.398;2024-01-10T14:08:31;20.90;;;18.07;;
20896;SDS011;10608;42.600;23.398;2024-01-10T14:10:56;18.60;;;16.70;;
20896;SDS011;10608;42.600;23.398;2024-01-10T14:13:22;20.00;;;17.50;;
20896;SDS011;10608;42.600;23.398;2024-01-10T14:15:50;19.90;;;17.63;;
20896;SDS011;10608;42.600;23.398;2024-01-10T14:18:15;22.50;;;19.80;;